sensor_id;sensor_type;location;lat;lon;timestamp;pressure;altitude;pressure_sealevel;temperature;humidity
6144;BME280;3103;49.492;8.474;2022-11-20T00:00:17;100075.25;;;5.52;87.15
6144;BME280;3103;49.492;8.474;2022-11-20T00:02:44;100071.16;;;5.11;87.35
6144;BME280;3103;49.492;8.474;2022-11-20T00:05:11;100077.53;;;5.10;89.18
6144;BME280;3103;49.492;8.474;2022-11-20T00:07:37;100071.31;;;5.16;89.47
6144;BME280;3103;49.492;8.474;2022-11-20T00:10:04;100071.09;;;5.24;89.61
6144;BME280;3103;49.492;8.474;2022-11-20T00:12:31;100073.94;;;5.61;87.71
6144;BME280;3103;49.492;8.474;2022-11-20T00:14:58;100066.28;;;5.71;85.44
6144;BME280;3103;49.492;8.474;2022-11-20T00:17:25;100056.28;;;5.35;86.14
6144;BME280;3103;49.492;8.474;2022-11-20T00:19:51;100053.94;;;5.45;86.63
6144;BME280;3103;49.492;8.474;2022-11-20T00:22:18;100057.03;;;5.11;87.54
6144;BME280;3103;49.492;8.474;2022-11-20T00:24:45;100068.88;;;5.15;89.16
6144;BME280;3103;49.492;8.474;2022-11-20T00:27:11;100070.81;;;5.32;88.36
6144;BME280;3103;49.492;8.474;2022-11-20T00:29:38;100068.81;;;5.28;88.61
6144;BME280;3103;49.492;8.474;2022-11-20T00:32:04;100062.56;;;5.09;89.43
6144;BME280;3103;49.492;8.474;2022-11-20T00:34:31;100057.03;;;5.42;89.59
6144;BME280;3103;49.492;8.474;2022-11-20T00:36:58;100064.56;;;5.52;88.52
6144;BME280;3103;49.492;8.474;2022-11-20T00:39:25;100066.53;;;5.31;88.77
6144;BME280;3103;49.492;8.474;2022-11-20T00:41:51;100063.34;;;5.16;89.85
6144;BME280;3103;49.492;8.474;2022-11-20T00:44:18;100061.03;;;5.26;90.26
6144;BME280;3103;49.492;8.474;2022-11-20T00:46:44;100061.84;;;5.27;89.87
6144;BME280;3103;49.492;8.474;2022-11-20T00:49:11;100069.16;;;5.38;89.52
6144;BME280;3103;49.492;8.474;2022-11-20T00:51:38;100074.66;;;5.43;89.09
6144;BME280;3103;49.492;8.474;2022-11-20T00:54:04;100065.84;;;5.49;88.91
6144;BME280;3103;49.492;8.474;2022-11-20T00:56:31;100075.97;;;5.65;87.43
6144;BME280;3103;49.492;8.474;2022-11-20T00:58:59;100075.03;;;5.53;88.12
6144;BME280;3103;49.492;8.474;2022-11-20T01:01:27;100072.56;;;5.52;89.85
6144;BME280;3103;49.492;8.474;2022-11-20T01:03:58;100073.63;;;5.76;88.48
6144;BME280;3103;49.492;8.474;2022-11-20T01:06:30;100069.50;;;5.48;88.86
6144;BME280;3103;49.492;8.474;2022-11-20T01:08:59;100076.06;;;5.46;89.21
6144;BME280;3103;49.492;8.474;2022-11-20T01:11:33;100073.84;;;5.04;89.87
6144;BME280;3103;49.492;8.474;2022-11-20T01:14:02;100070.28;;;5.17;91.24
6144;BME280;3103;49.492;8.474;2022-11-20T01:16:32;100072.75;;;5.82;87.43
6144;BME280;3103;49.492;8.474;2022-11-20T01:19:01;100067.88;;;5.47;88.01
6144;BME280;3103;49.492;8.474;2022-11-20T01:21:33;100053.22;;;5.31;89.57
6144;BME280;3103;49.492;8.474;2022-11-20T01:24:00;100067.91;;;5.41;89.65
6144;BME280;3103;49.492;8.474;2022-11-20T01:26:30;100069.72;;;5.47;88.92
6144;BME280;3103;49.492;8.474;2022-11-20T01:28:57;100065.34;;;5.59;87.14
6144;BME280;3103;49.492;8.474;2022-11-20T01:31:44;100069.13;;;5.45;88.53
6144;BME280;3103;49.492;8.474;2022-11-20T01:34:13;100065.53;;;5.64;88.29
6144;BME280;3103;49.492;8.474;2022-11-20T01:36:41;100072.25;;;5.66;87.70
6144;BME280;3103;49.492;8.474;2022-11-20T01:39:14;100062.59;;;5.41;89.18
6144;BME280;3103;49.492;8.474;2022-11-20T01:41:42;100051.97;;;5.34;89.81
6144;BME280;3103;49.492;8.474;2022-11-20T01:44:48;100052.75;;;5.41;90.35
6144;BME280;3103;49.492;8.474;2022-11-20T01:47:20;100053.03;;;5.58;88.96
6144;BME280;3103;49.492;8.474;2022-11-20T01:49:56;100057.44;;;5.46;89.21
6144;BME280;3103;49.492;8.474;2022-11-20T01:52:30;100048.72;;;5.63;88.71
6144;BME280;3103;49.492;8.474;2022-11-20T01:55:15;100045.22;;;5.63;87.53
6144;BME280;3103;49.492;8.474;2022-11-20T01:57:44;100052.28;;;5.51;87.85
6144;BME280;3103;49.492;8.474;2022-11-20T02:00:14;100044.75;;;5.41;89.20
6144;BME280;3103;49.492;8.474;2022-11-20T02:02:45;100050.28;;;5.71;88.01
6144;BME280;3103;49.492;8.474;2022-11-20T02:07:48;100047.44;;;5.34;89.08
6144;BME280;3103;49.492;8.474;2022-11-20T02:10:15;100036.91;;;5.21;90.83
6144;BME280;3103;49.492;8.474;2022-11-20T02:12:41;100034.38;;;5.58;89.90
6144;BME280;3103;49.492;8.474;2022-11-20T02:15:48;100043.25;;;5.52;88.33
6144;BME280;3103;49.492;8.474;2022-11-20T02:18:17;100052.38;;;5.62;87.98
6144;BME280;3103;49.492;8.474;2022-11-20T02:20:47;100062.44;;;5.60;87.91
6144;BME280;3103;49.492;8.474;2022-11-20T02:23:26;100055.28;;;5.61;87.16
6144;BME280;3103;49.492;8.474;2022-11-20T02:25:55;100059.06;;;5.47;88.30
6144;BME280;3103;49.492;8.474;2022-11-20T02:28:24;100050.31;;;5.33;89.71
6144;BME280;3103;49.492;8.474;2022-11-20T02:30:50;100040.56;;;5.20;90.90
6144;BME280;3103;49.492;8.474;2022-11-20T02:33:17;100037.75;;;5.15;92.57
6144;BME280;3103;49.492;8.474;2022-11-20T02:35:46;100034.41;;;5.26;91.47
6144;BME280;3103;49.492;8.474;2022-11-20T02:38:13;100036.03;;;5.27;91.63
6144;BME280;3103;49.492;8.474;2022-11-20T02:40:41;100033.22;;;5.16;91.71
6144;BME280;3103;49.492;8.474;2022-11-20T02:43:08;100032.78;;;5.25;90.86
6144;BME280;3103;49.492;8.474;2022-11-20T02:45:36;100028.63;;;5.29;90.31
6144;BME280;3103;49.492;8.474;2022-11-20T02:48:03;100025.97;;;5.29;90.61
6144;BME280;3103;49.492;8.474;2022-11-20T02:50:29;100020.31;;;5.51;88.42
6144;BME280;3103;49.492;8.474;2022-11-20T02:52:56;100029.50;;;5.80;87.36
6144;BME280;3103;49.492;8.474;2022-11-20T02:55:23;100024.41;;;5.15;90.99
6144;BME280;3103;49.492;8.474;2022-11-20T02:57:49;100023.00;;;5.13;90.46
6144;BME280;3103;49.492;8.474;2022-11-20T03:00:16;100019.69;;;5.17;91.04
6144;BME280;3103;49.492;8.474;2022-11-20T03:02:43;100020.53;;;5.49;90.43
6144;BME280;3103;49.492;8.474;2022-11-20T03:05:09;100019.34;;;5.70;87.72
6144;BME280;3103;49.492;8.474;2022-11-20T03:07:36;100020.94;;;5.46;88.36
6144;BME280;3103;49.492;8.474;2022-11-20T03:10:04;100007.91;;;5.00;90.83
6144;BME280;3103;49.492;8.474;2022-11-20T03:12:31;100014.13;;;5.25;90.23
6144;BME280;3103;49.492;8.474;2022-11-20T03:14:57;100014.94;;;5.26;90.07
6144;BME280;3103;49.492;8.474;2022-11-20T03:17:24;100020.56;;;5.11;92.29
6144;BME280;3103;49.492;8.474;2022-11-20T03:19:51;100009.03;;;5.24;90.75
6144;BME280;3103;49.492;8.474;2022-11-20T03:22:17;100010.28;;;5.21;91.39
6144;BME280;3103;49.492;8.474;2022-11-20T03:24:44;100008.72;;;5.07;91.97
6144;BME280;3103;49.492;8.474;2022-11-20T03:27:10;100019.63;;;5.30;91.46
6144;BME280;3103;49.492;8.474;2022-11-20T03:29:37;100009.03;;;5.24;90.89
6144;BME280;3103;49.492;8.474;2022-11-20T03:32:04;100003.78;;;5.04;92.08
6144;BME280;3103;49.492;8.474;2022-11-20T03:34:31;100011.97;;;5.09;93.30
6144;BME280;3103;49.492;8.474;2022-11-20T03:36:57;100023.94;;;4.93;93.18
6144;BME280;3103;49.492;8.474;2022-11-20T03:39:24;100017.31;;;5.02;93.13
6144;BME280;3103;49.492;8.474;2022-11-20T03:41:51;100019.38;;;5.07;93.46
6144;BME280;3103;49.492;8.474;2022-11-20T03:44:20;100021.56;;;4.79;94.63
6144;BME280;3103;49.492;8.474;2022-11-20T03:46:48;100026.94;;;4.65;96.74
6144;BME280;3103;49.492;8.474;2022-11-20T03:49:15;100022.44;;;4.59;97.01
6144;BME280;3103;49.492;8.474;2022-11-20T03:51:41;100012.81;;;4.65;96.58
6144;BME280;3103;49.492;8.474;2022-11-20T03:54:08;100004.50;;;4.93;96.51
6144;BME280;3103;49.492;8.474;2022-11-20T03:56:37;99997.84;;;4.70;96.92
6144;BME280;3103;49.492;8.474;2022-11-20T03:59:04;100001.41;;;4.96;96.76
6144;BME280;3103;49.492;8.474;2022-11-20T04:01:34;99999.72;;;5.01;96.67
6144;BME280;3103;49.492;8.474;2022-11-20T04:04:01;99998.38;;;5.24;95.93
6144;BME280;3103;49.492;8.474;2022-11-20T04:06:30;100005.09;;;5.26;93.83
6144;BME280;3103;49.492;8.474;2022-11-20T04:08:57;100008.34;;;5.28;93.98
6144;BME280;3103;49.492;8.474;2022-11-20T04:11:29;100013.06;;;5.58;92.90
6144;BME280;3103;49.492;8.474;2022-11-20T04:14:05;100007.25;;;5.43;92.93
6144;BME280;3103;49.492;8.474;2022-11-20T04:16:35;100014.78;;;5.46;93.39
6144;BME280;3103;49.492;8.474;2022-11-20T04:19:04;100010.06;;;5.48;92.84
6144;BME280;3103;49.492;8.474;2022-11-20T04:21:32;100006.25;;;5.62;92.21
6144;BME280;3103;49.492;8.474;2022-11-20T04:24:02;100003.78;;;5.67;91.55
6144;BME280;3103;49.492;8.474;2022-11-20T04:26:30;100006.34;;;5.49;92.07
6144;BME280;3103;49.492;8.474;2022-11-20T04:28:57;100005.81;;;5.40;92.54
6144;BME280;3103;49.492;8.474;2022-11-20T04:31:27;100005.53;;;5.48;93.53
6144;BME280;3103;49.492;8.474;2022-11-20T04:33:54;100001.88;;;5.49;93.38
6144;BME280;3103;49.492;8.474;2022-11-20T04:36:23;99997.41;;;5.43;93.39
6144;BME280;3103;49.492;8.474;2022-11-20T04:38:58;99995.19;;;5.65;92.45
6144;BME280;3103;49.492;8.474;2022-11-20T04:41:27;99996.75;;;5.48;92.71
6144;BME280;3103;49.492;8.474;2022-11-20T04:43:56;99993.91;;;5.43;93.08
6144;BME280;3103;49.492;8.474;2022-11-20T04:46:27;99995.84;;;5.35;93.06
6144;BME280;3103;49.492;8.474;2022-11-20T04:48:54;99992.66;;;5.45;92.66
6144;BME280;3103;49.492;8.474;2022-11-20T04:51:21;99999.38;;;5.79;91.56
6144;BME280;3103;49.492;8.474;2022-11-20T04:53:47;99995.09;;;5.78;90.96
6144;BME280;3103;49.492;8.474;2022-11-20T04:56:15;100000.00;;;5.75;91.04
6144;BME280;3103;49.492;8.474;2022-11-20T04:58:42;99999.75;;;5.83;91.25
6144;BME280;3103;49.492;8.474;2022-11-20T05:01:13;99995.34;;;5.70;92.34
6144;BME280;3103;49.492;8.474;2022-11-20T05:03:41;99982.38;;;5.49;92.63
6144;BME280;3103;49.492;8.474;2022-11-20T05:06:10;99984.78;;;5.57;93.38
6144;BME280;3103;49.492;8.474;2022-11-20T05:08:37;99978.28;;;5.53;94.62
6144;BME280;3103;49.492;8.474;2022-11-20T05:11:18;99977.44;;;5.77;93.70
6144;BME280;3103;49.492;8.474;2022-11-20T05:13:46;99974.47;;;5.92;91.68
6144;BME280;3103;49.492;8.474;2022-11-20T05:16:18;99975.78;;;5.76;92.15
6144;BME280;3103;49.492;8.474;2022-11-20T05:18:46;99974.47;;;5.67;92.89
6144;BME280;3103;49.492;8.474;2022-11-20T05:21:13;99986.03;;;5.79;92.40
6144;BME280;3103;49.492;8.474;2022-11-20T05:23:40;99979.28;;;5.77;92.05
6144;BME280;3103;49.492;8.474;2022-11-20T05:26:12;99977.13;;;5.67;92.97
6144;BME280;3103;49.492;8.474;2022-11-20T05:28:39;99973.09;;;5.58;94.07
6144;BME280;3103;49.492;8.474;2022-11-20T05:31:08;99978.41;;;5.58;94.88
6144;BME280;3103;49.492;8.474;2022-11-20T05:33:35;99973.09;;;5.58;94.60
6144;BME280;3103;49.492;8.474;2022-11-20T05:36:03;99972.25;;;5.64;95.06
6144;BME280;3103;49.492;8.474;2022-11-20T05:38:30;99982.00;;;5.70;95.03
6144;BME280;3103;49.492;8.474;2022-11-20T05:41:05;99976.09;;;5.43;95.87
6144;BME280;3103;49.492;8.474;2022-11-20T05:43:38;99979.47;;;5.57;95.53
6144;BME280;3103;49.492;8.474;2022-11-20T05:46:06;99977.56;;;5.64;95.40
6144;BME280;3103;49.492;8.474;2022-11-20T05:48:34;99968.47;;;6.15;91.95
6144;BME280;3103;49.492;8.474;2022-11-20T05:51:02;99973.47;;;5.86;92.30
6144;BME280;3103;49.492;8.474;2022-11-20T05:53:30;99959.19;;;5.56;94.62
6144;BME280;3103;49.492;8.474;2022-11-20T05:56:03;99965.09;;;5.58;94.94
6144;BME280;3103;49.492;8.474;2022-11-20T05:58:30;99964.41;;;6.12;91.21
6144;BME280;3103;49.492;8.474;2022-11-20T06:01:06;99959.22;;;5.99;90.99
6144;BME280;3103;49.492;8.474;2022-11-20T06:03:33;99963.03;;;5.60;91.67
6144;BME280;3103;49.492;8.474;2022-11-20T06:06:00;99959.00;;;5.76;92.75
6144;BME280;3103;49.492;8.474;2022-11-20T06:08:27;99957.69;;;5.60;93.47
6144;BME280;3103;49.492;8.474;2022-11-20T06:10:54;99957.53;;;5.55;93.58
6144;BME280;3103;49.492;8.474;2022-11-20T06:13:21;99951.03;;;5.19;95.58
6144;BME280;3103;49.492;8.474;2022-11-20T06:15:49;99955.81;;;5.42;96.45
6144;BME280;3103;49.492;8.474;2022-11-20T06:18:16;99963.13;;;5.72;94.03
6144;BME280;3103;49.492;8.474;2022-11-20T06:20:43;99962.72;;;5.50;94.02
6144;BME280;3103;49.492;8.474;2022-11-20T06:23:10;99969.56;;;5.64;94.86
6144;BME280;3103;49.492;8.474;2022-11-20T06:25:38;99959.03;;;5.51;95.56
6144;BME280;3103;49.492;8.474;2022-11-20T06:28:06;99957.06;;;5.40;97.11
6144;BME280;3103;49.492;8.474;2022-11-20T06:30:32;99966.34;;;5.80;95.12
6144;BME280;3103;49.492;8.474;2022-11-20T06:32:59;99958.72;;;5.59;95.29
6144;BME280;3103;49.492;8.474;2022-11-20T06:35:26;99960.84;;;5.75;94.15
6144;BME280;3103;49.492;8.474;2022-11-20T06:37:53;99961.28;;;5.47;95.87
6144;BME280;3103;49.492;8.474;2022-11-20T06:40:19;99959.19;;;5.56;96.35
6144;BME280;3103;49.492;8.474;2022-11-20T06:42:46;99964.28;;;5.82;95.91
6144;BME280;3103;49.492;8.474;2022-11-20T06:45:13;99963.69;;;5.80;94.21
6144;BME280;3103;49.492;8.474;2022-11-20T06:47:39;99966.84;;;5.71;94.88
6144;BME280;3103;49.492;8.474;2022-11-20T06:50:06;99962.75;;;5.68;95.81
6144;BME280;3103;49.492;8.474;2022-11-20T06:52:33;99964.34;;;5.51;96.12
6144;BME280;3103;49.492;8.474;2022-11-20T06:55:06;99970.38;;;5.64;97.28
6144;BME280;3103;49.492;8.474;2022-11-20T06:57:33;99976.41;;;5.78;95.64
6144;BME280;3103;49.492;8.474;2022-11-20T07:00:00;99979.38;;;5.88;94.96
6144;BME280;3103;49.492;8.474;2022-11-20T07:02:29;99967.28;;;5.92;95.29
6144;BME280;3103;49.492;8.474;2022-11-20T07:04:56;99975.31;;;5.61;97.13
6144;BME280;3103;49.492;8.474;2022-11-20T07:07:23;99979.50;;;5.75;96.80
6144;BME280;3103;49.492;8.474;2022-11-20T07:09:49;99981.22;;;5.88;96.78
6144;BME280;3103;49.492;8.474;2022-11-20T07:12:16;99981.00;;;5.89;96.98
6144;BME280;3103;49.492;8.474;2022-11-20T07:14:43;99979.13;;;5.97;96.70
6144;BME280;3103;49.492;8.474;2022-11-20T07:17:10;99977.53;;;5.89;96.73
6144;BME280;3103;49.492;8.474;2022-11-20T07:19:36;99971.72;;;6.17;96.59
6144;BME280;3103;49.492;8.474;2022-11-20T07:22:03;99980.19;;;6.14;95.17
6144;BME280;3103;49.492;8.474;2022-11-20T07:24:29;99985.66;;;6.19;95.44
6144;BME280;3103;49.492;8.474;2022-11-20T07:26:56;99984.03;;;6.18;94.98
6144;BME280;3103;49.492;8.474;2022-11-20T07:29:23;99984.03;;;6.18;94.86
6144;BME280;3103;49.492;8.474;2022-11-20T07:31:49;99978.88;;;6.23;95.05
6144;BME280;3103;49.492;8.474;2022-11-20T07:34:16;99975.16;;;6.24;94.61
6144;BME280;3103;49.492;8.474;2022-11-20T07:36:43;99986.19;;;6.09;95.15
6144;BME280;3103;49.492;8.474;2022-11-20T07:39:09;99977.88;;;6.17;95.57
6144;BME280;3103;49.492;8.474;2022-11-20T07:41:36;99975.88;;;5.94;96.57
6144;BME280;3103;49.492;8.474;2022-11-20T07:44:03;99971.47;;;6.07;96.63
6144;BME280;3103;49.492;8.474;2022-11-20T07:46:30;99983.91;;;6.31;96.93
6144;BME280;3103;49.492;8.474;2022-11-20T07:48:56;99972.13;;;6.20;96.72
6144;BME280;3103;49.492;8.474;2022-11-20T07:51:23;99983.28;;;6.47;95.23
6144;BME280;3103;49.492;8.474;2022-11-20T07:53:51;99983.53;;;6.64;93.34
6144;BME280;3103;49.492;8.474;2022-11-20T07:56:18;99986.84;;;6.60;92.68
6144;BME280;3103;49.492;8.474;2022-11-20T07:58:45;99987.75;;;6.53;93.58
6144;BME280;3103;49.492;8.474;2022-11-20T08:01:11;99985.53;;;6.50;93.47
6144;BME280;3103;49.492;8.474;2022-11-20T08:03:38;99986.72;;;6.36;93.90
6144;BME280;3103;49.492;8.474;2022-11-20T08:06:05;99993.72;;;5.94;96.22
6144;BME280;3103;49.492;8.474;2022-11-20T08:08:32;99995.97;;;6.15;97.95
6144;BME280;3103;49.492;8.474;2022-11-20T08:11:01;99996.19;;;6.14;98.47
6144;BME280;3103;49.492;8.474;2022-11-20T08:13:51;99994.34;;;6.33;96.85
6144;BME280;3103;49.492;8.474;2022-11-20T08:16:36;99988.81;;;6.34;96.79
6144;BME280;3103;49.492;8.474;2022-11-20T08:19:03;100004.28;;;6.25;97.07
6144;BME280;3103;49.492;8.474;2022-11-20T08:21:30;100007.53;;;6.28;97.29
6144;BME280;3103;49.492;8.474;2022-11-20T08:24:04;100014.91;;;6.50;97.21
6144;BME280;3103;49.492;8.474;2022-11-20T08:26:31;100016.72;;;6.32;97.76
6144;BME280;3103;49.492;8.474;2022-11-20T08:28:58;100019.25;;;6.27;97.53
6144;BME280;3103;49.492;8.474;2022-11-20T08:31:26;100024.44;;;6.40;97.88
6144;BME280;3103;49.492;8.474;2022-11-20T08:33:53;100024.22;;;6.23;97.98
6144;BME280;3103;49.492;8.474;2022-11-20T08:36:20;100031.06;;;6.37;96.74
6144;BME280;3103;49.492;8.474;2022-11-20T08:38:48;100031.09;;;6.31;96.50
6144;BME280;3103;49.492;8.474;2022-11-20T08:41:15;100033.94;;;6.36;96.40
6144;BME280;3103;49.492;8.474;2022-11-20T08:43:57;100039.41;;;6.22;96.65
6144;BME280;3103;49.492;8.474;2022-11-20T08:46:26;100035.22;;;6.51;95.78
6144;BME280;3103;49.492;8.474;2022-11-20T08:48:53;100030.69;;;6.52;96.13
6144;BME280;3103;49.492;8.474;2022-11-20T08:51:21;100046.28;;;6.30;95.64
6144;BME280;3103;49.492;8.474;2022-11-20T08:53:47;100046.84;;;6.57;95.74
6144;BME280;3103;49.492;8.474;2022-11-20T08:56:17;100048.56;;;6.51;95.19
6144;BME280;3103;49.492;8.474;2022-11-20T08:58:44;100047.97;;;6.49;93.39
6144;BME280;3103;49.492;8.474;2022-11-20T09:01:31;100048.56;;;6.51;93.32
6144;BME280;3103;49.492;8.474;2022-11-20T09:03:58;100049.88;;;6.42;94.59
6144;BME280;3103;49.492;8.474;2022-11-20T09:06:26;100058.41;;;6.51;93.35
6144;BME280;3103;49.492;8.474;2022-11-20T09:08:53;100056.09;;;6.54;92.93
6144;BME280;3103;49.492;8.474;2022-11-20T09:11:20;100050.47;;;6.44;93.49
6144;BME280;3103;49.492;8.474;2022-11-20T09:13:47;100053.72;;;6.28;95.25
6144;BME280;3103;49.492;8.474;2022-11-20T09:16:13;100053.72;;;6.46;94.55
6144;BME280;3103;49.492;8.474;2022-11-20T09:18:40;100049.19;;;6.47;93.93
6144;BME280;3103;49.492;8.474;2022-11-20T09:21:12;100044.91;;;6.46;93.88
6144;BME280;3103;49.492;8.474;2022-11-20T09:23:40;100047.06;;;6.55;93.73
6144;BME280;3103;49.492;8.474;2022-11-20T09:26:12;100055.00;;;6.62;92.43
6144;BME280;3103;49.492;8.474;2022-11-20T09:28:40;100054.84;;;6.57;92.80
6144;BME280;3103;49.492;8.474;2022-11-20T09:31:07;100061.13;;;6.26;93.24
6144;BME280;3103;49.492;8.474;2022-11-20T09:33:35;100066.69;;;6.24;93.67
6144;BME280;3103;49.492;8.474;2022-11-20T09:36:02;100061.25;;;6.31;93.33
6144;BME280;3103;49.492;8.474;2022-11-20T09:38:29;100067.81;;;6.35;93.31
6144;BME280;3103;49.492;8.474;2022-11-20T09:41:05;100066.47;;;6.44;93.04
6144;BME280;3103;49.492;8.474;2022-11-20T09:43:53;100069.97;;;6.45;92.28
6144;BME280;3103;49.492;8.474;2022-11-20T09:46:32;100061.31;;;6.49;91.89
6144;BME280;3103;49.492;8.474;2022-11-20T09:49:25;100053.75;;;6.65;91.97
6144;BME280;3103;49.492;8.474;2022-11-20T09:52:00;100060.63;;;6.54;91.64
6144;BME280;3103;49.492;8.474;2022-11-20T09:54:33;100055.22;;;6.42;92.11
6144;BME280;3103;49.492;8.474;2022-11-20T09:57:12;100057.19;;;6.47;93.05
6144;BME280;3103;49.492;8.474;2022-11-20T09:59:43;100057.28;;;6.40;92.43
6144;BME280;3103;49.492;8.474;2022-11-20T10:05:02;100051.59;;;6.55;92.89
6144;BME280;3103;49.492;8.474;2022-11-20T10:07:39;100057.94;;;6.72;92.02
6144;BME280;3103;49.492;8.474;2022-11-20T10:10:42;100057.16;;;6.53;92.20
6144;BME280;3103;49.492;8.474;2022-11-20T10:13:40;100060.63;;;6.54;93.24
6144;BME280;3103;49.492;8.474;2022-11-20T10:17:00;100070.84;;;6.39;95.13
6144;BME280;3103;49.492;8.474;2022-11-20T10:19:44;100067.81;;;6.72;95.75
6144;BME280;3103;49.492;8.474;2022-11-20T10:22:27;100054.19;;;6.62;95.90
6144;BME280;3103;49.492;8.474;2022-11-20T10:30:18;100052.25;;;6.69;94.24
6144;BME280;3103;49.492;8.474;2022-11-20T10:32:49;100042.63;;;6.68;93.83
6144;BME280;3103;49.492;8.474;2022-11-20T10:35:25;100039.19;;;6.61;94.65
6144;BME280;3103;49.492;8.474;2022-11-20T10:38:00;100044.75;;;6.96;92.14
6144;BME280;3103;49.492;8.474;2022-11-20T10:40:28;100036.22;;;6.69;93.35
6144;BME280;3103;49.492;8.474;2022-11-20T10:43:16;100041.94;;;6.54;93.65
6144;BME280;3103;49.492;8.474;2022-11-20T10:45:56;100037.78;;;6.58;94.64
6144;BME280;3103;49.492;8.474;2022-11-20T10:48:26;100031.47;;;6.71;95.25
6144;BME280;3103;49.492;8.474;2022-11-20T10:51:03;100031.97;;;6.98;95.75
6144;BME280;3103;49.492;8.474;2022-11-20T10:59:27;100015.72;;;6.99;96.19
6144;BME280;3103;49.492;8.474;2022-11-20T11:01:54;100014.94;;;7.10;97.83
6144;BME280;3103;49.492;8.474;2022-11-20T11:04:36;100011.34;;;7.17;96.26
6144;BME280;3103;49.492;8.474;2022-11-20T11:07:10;100024.06;;;7.21;96.30
6144;BME280;3103;49.492;8.474;2022-11-20T11:09:44;100024.19;;;7.26;96.35
6144;BME280;3103;49.492;8.474;2022-11-20T11:12:13;100021.25;;;7.58;94.75
6144;BME280;3103;49.492;8.474;2022-11-20T11:14:51;100013.34;;;7.51;94.00
6144;BME280;3103;49.492;8.474;2022-11-20T11:17:30;100014.19;;;7.63;94.10
6144;BME280;3103;49.492;8.474;2022-11-20T11:20:05;100011.03;;;7.66;94.44
6144;BME280;3103;49.492;8.474;2022-11-20T11:22:34;100006.63;;;7.95;93.14
6144;BME280;3103;49.492;8.474;2022-11-20T11:25:19;99993.25;;;8.19;92.60
6144;BME280;3103;49.492;8.474;2022-11-20T11:27:47;99996.13;;;8.52;91.40
6144;BME280;3103;49.492;8.474;2022-11-20T11:30:18;99997.47;;;8.78;90.93
6144;BME280;3103;49.492;8.474;2022-11-20T11:32:45;99992.81;;;9.31;85.38
6144;BME280;3103;49.492;8.474;2022-11-20T11:35:44;99987.09;;;9.27;84.26
6144;BME280;3103;49.492;8.474;2022-11-20T11:38:21;99982.44;;;9.06;84.58
6144;BME280;3103;49.492;8.474;2022-11-20T11:40:48;99977.69;;;8.96;85.05
6144;BME280;3103;49.492;8.474;2022-11-20T11:43:24;99981.84;;;8.87;85.66
6144;BME280;3103;49.492;8.474;2022-11-20T11:48:57;99988.09;;;8.52;88.53
6144;BME280;3103;49.492;8.474;2022-11-20T11:54:15;99969.84;;;8.49;89.36
6144;BME280;3103;49.492;8.474;2022-11-20T11:56:44;99973.13;;;8.40;89.13
6144;BME280;3103;49.492;8.474;2022-11-20T11:59:16;99971.34;;;8.33;90.17
6144;BME280;3103;49.492;8.474;2022-11-20T12:01:51;99959.44;;;8.65;89.89
6144;BME280;3103;49.492;8.474;2022-11-20T12:04:50;99955.25;;;8.57;88.61
6144;BME280;3103;49.492;8.474;2022-11-20T12:07:32;99963.50;;;8.96;86.16
6144;BME280;3103;49.492;8.474;2022-11-20T12:13:12;99948.75;;;9.10;86.71
6144;BME280;3103;49.492;8.474;2022-11-20T12:15:44;99953.31;;;9.26;82.43
6144;BME280;3103;49.492;8.474;2022-11-20T12:18:20;99950.25;;;9.34;81.32
6144;BME280;3103;49.492;8.474;2022-11-20T12:26:06;99947.69;;;9.11;83.80
6144;BME280;3103;49.492;8.474;2022-11-20T12:28:52;99946.56;;;9.07;83.47
6144;BME280;3103;49.492;8.474;2022-11-20T12:31:47;99948.38;;;9.18;82.96
6144;BME280;3103;49.492;8.474;2022-11-20T12:34:38;99943.13;;;8.95;83.76
6144;BME280;3103;49.492;8.474;2022-11-20T12:37:45;99947.94;;;9.09;82.33
6144;BME280;3103;49.492;8.474;2022-11-20T12:40:27;99944.97;;;8.94;82.67
6144;BME280;3103;49.492;8.474;2022-11-20T12:43:24;99937.13;;;9.04;83.14
6144;BME280;3103;49.492;8.474;2022-11-20T12:51:57;99933.28;;;9.00;83.65
6144;BME280;3103;49.492;8.474;2022-11-20T12:54:36;99942.75;;;9.03;80.31
6144;BME280;3103;49.492;8.474;2022-11-20T13:00:21;99931.03;;;9.09;79.85
6144;BME280;3103;49.492;8.474;2022-11-20T13:05:57;99935.91;;;9.12;78.68
6144;BME280;3103;49.492;8.474;2022-11-20T13:08:45;99928.13;;;9.10;79.36
6144;BME280;3103;49.492;8.474;2022-11-20T13:11:32;99917.25;;;9.17;78.15
6144;BME280;3103;49.492;8.474;2022-11-20T13:17:11;99918.31;;;9.33;77.60
6144;BME280;3103;49.492;8.474;2022-11-20T13:19:39;99914.66;;;9.22;78.23
6144;BME280;3103;49.492;8.474;2022-11-20T13:22:08;99921.06;;;9.21;78.34
6144;BME280;3103;49.492;8.474;2022-11-20T13:24:35;99912.72;;;9.34;77.39
6144;BME280;3103;49.492;8.474;2022-11-20T13:29:43;99899.47;;;9.44;77.31
6144;BME280;3103;49.492;8.474;2022-11-20T13:32:20;99895.25;;;9.32;77.17
6144;BME280;3103;49.492;8.474;2022-11-20T13:34:56;99897.25;;;9.41;77.84
6144;BME280;3103;49.492;8.474;2022-11-20T13:40:25;99888.56;;;9.51;77.46
6144;BME280;3103;49.492;8.474;2022-11-20T13:45:54;99884.25;;;9.50;75.17
6144;BME280;3103;49.492;8.474;2022-11-20T13:48:23;99877.50;;;9.64;75.82
6144;BME280;3103;49.492;8.474;2022-11-20T13:50:55;99884.38;;;9.77;74.31
6144;BME280;3103;49.492;8.474;2022-11-20T13:53:36;99878.47;;;9.75;73.18
6144;BME280;3103;49.492;8.474;2022-11-20T13:56:11;99876.38;;;9.60;72.08
6144;BME280;3103;49.492;8.474;2022-11-20T13:59:14;99877.19;;;9.61;72.22
6144;BME280;3103;49.492;8.474;2022-11-20T14:01:45;99869.38;;;9.59;71.19
6144;BME280;3103;49.492;8.474;2022-11-20T14:04:15;99868.03;;;9.78;69.92
6144;BME280;3103;49.492;8.474;2022-11-20T14:06:46;99862.25;;;9.87;69.90
6144;BME280;3103;49.492;8.474;2022-11-20T14:09:32;99860.94;;;9.89;67.91
6144;BME280;3103;49.492;8.474;2022-11-20T14:11:59;99861.84;;;9.78;64.73
6144;BME280;3103;49.492;8.474;2022-11-20T14:14:27;99862.88;;;9.94;65.70
6144;BME280;3103;49.492;8.474;2022-11-20T14:17:06;99854.19;;;10.08;64.91
6144;BME280;3103;49.492;8.474;2022-11-20T14:19:34;99859.81;;;10.07;64.21
6144;BME280;3103;49.492;8.474;2022-11-20T14:25:33;99846.81;;;9.77;63.82
6144;BME280;3103;49.492;8.474;2022-11-20T14:27:37;99852.78;;;9.62;63.04
6144;BME280;3103;49.492;8.474;2022-11-20T14:30:06;99848.00;;;9.64;63.78
6144;BME280;3103;49.492;8.474;2022-11-20T14:32:38;99853.16;;;9.71;63.63
6144;BME280;3103;49.492;8.474;2022-11-20T14:35:09;99851.06;;;9.73;63.28
6144;BME280;3103;49.492;8.474;2022-11-20T14:37:38;99852.84;;;9.67;63.04
6144;BME280;3103;49.492;8.474;2022-11-20T14:40:30;99852.38;;;9.53;64.36
6144;BME280;3103;49.492;8.474;2022-11-20T14:42:59;99853.41;;;9.69;63.86
6144;BME280;3103;49.492;8.474;2022-11-20T14:45:26;99845.31;;;9.64;63.89